createdAt,value
2022-08-19T00:03:00.476Z,50.91
2022-08-19T00:07:04.404Z,51.25
2022-08-19T00:11:09.573Z,51.52
2022-08-19T00:15:23.535Z,52.13
2022-08-19T00:19:27.114Z,53.00
2022-08-19T00:23:30.464Z,53.17
2022-08-19T00:27:35.717Z,53.98
2022-08-19T00:31:38.944Z,53.71
2022-08-19T00:35:42.178Z,54.02
2022-08-19T00:39:45.829Z,54.59
2022-08-19T00:44:06.333Z,55.28
2022-08-19T00:48:14.874Z,55.51
2022-08-19T00:52:23.136Z,55.80
2022-08-19T00:56:27.470Z,55.75
2022-08-19T01:00:37.578Z,56.22
2022-08-19T01:04:40.925Z,56.65
2022-08-19T01:08:44.088Z,56.36
2022-08-19T01:12:48.355Z,56.79
2022-08-19T01:16:55.517Z,56.84
2022-08-19T01:21:01.740Z,57.01
2022-08-19T01:25:09.975Z,57.44
2022-08-19T01:29:18.419Z,58.00
2022-08-19T01:33:23.631Z,58.29
2022-08-19T01:37:27.231Z,58.32
2022-08-19T01:41:31.878Z,59.20
2022-08-19T01:45:38.618Z,59.48
2022-08-19T01:49:41.793Z,59.47
2022-08-19T01:53:44.972Z,59.57
2022-08-19T01:57:52.689Z,59.37
2022-08-19T02:01:56.253Z,59.75
2022-08-19T02:06:01.286Z,60.31
2022-08-19T02:10:09.418Z,60.48
2022-08-19T02:14:17.313Z,60.64
2022-08-19T02:18:20.596Z,61.01
2022-08-19T02:22:31.092Z,61.06
2022-08-19T02:26:34.673Z,61.15
2022-08-19T02:30:39.435Z,60.39
2022-08-19T02:34:42.722Z,60.45
2022-08-19T02:38:47.680Z,60.77
2022-08-19T02:42:58.960Z,60.80
2022-08-19T02:47:04.088Z,60.30
2022-08-19T02:51:07.402Z,60.67
2022-08-19T02:55:11.419Z,60.63
2022-08-19T02:59:14.829Z,60.29
2022-08-19T03:03:19.907Z,60.55
2022-08-19T03:07:23.515Z,60.69
2022-08-19T03:11:29.299Z,60.37
2022-08-19T03:15:32.732Z,61.18
2022-08-19T03:19:37.424Z,61.39
2022-08-19T03:23:41.520Z,61.21
2022-08-19T03:27:45.115Z,61.81
2022-08-19T03:31:52.482Z,62.22
2022-08-19T03:36:06.481Z,62.18
2022-08-19T03:40:10.527Z,62.37
2022-08-19T03:44:21.897Z,62.62
2022-08-19T03:48:25.428Z,62.86
2022-08-19T03:52:29.862Z,63.66
2022-08-19T03:56:33.061Z,63.61
2022-08-19T04:00:36.873Z,64.02
2022-08-19T04:04:41.689Z,64.00
2022-08-19T04:08:48.027Z,63.77
2022-08-19T04:12:51.540Z,63.95
2022-08-19T04:16:55.457Z,64.17
2022-08-19T04:20:58.823Z,64.09
2022-08-19T04:25:03.389Z,63.93
2022-08-19T04:29:12.733Z,64.72
2022-08-19T04:33:17.907Z,64.39
2022-08-19T04:37:29.528Z,64.74
2022-08-19T04:41:57.658Z,65.37
2022-08-19T04:46:06.175Z,65.76
2022-08-19T04:50:12.811Z,65.34
2022-08-19T04:54:33.743Z,65.94
2022-08-19T04:58:43.402Z,65.53
2022-08-19T05:02:46.877Z,65.58
2022-08-19T05:06:50.748Z,65.22
2022-08-19T05:10:54.026Z,65.47
2022-08-19T05:14:59.016Z,65.08
2022-08-19T05:19:19.803Z,64.89
2022-08-19T05:23:23.118Z,64.74
2022-08-19T05:27:26.560Z,64.65
2022-08-19T05:31:31.230Z,64.53
2022-08-19T05:35:34.746Z,64.40
2022-08-19T05:39:39.758Z,64.17
2022-08-19T05:43:43.211Z,63.95
2022-08-19T05:47:48.051Z,64.33
2022-08-19T05:51:52.155Z,63.72
2022-08-19T05:55:55.298Z,64.07
2022-08-19T06:00:01.416Z,63.47
2022-08-19T06:04:16.264Z,63.37
2022-08-19T06:08:19.700Z,63.49
2022-08-19T06:12:31.670Z,62.92
2022-08-19T06:16:36.080Z,63.12
2022-08-19T06:20:55.515Z,63.08
2022-08-19T06:24:59.176Z,62.49
2022-08-19T06:29:02.809Z,62.34
2022-08-19T06:33:06.128Z,62.15
2022-08-19T06:37:10.953Z,62.07
2022-08-19T06:41:14.007Z,62.11
2022-08-19T06:45:17.145Z,61.63
2022-08-19T06:49:20.806Z,61.93
2022-08-19T06:53:25.724Z,61.39
2022-08-19T06:57:33.635Z,61.78
2022-08-19T07:01:38.549Z,61.85
2022-08-19T07:05:45.659Z,61.50
2022-08-19T07:10:00.888Z,60.91
2022-08-19T07:14:07.546Z,60.67
2022-08-19T07:18:23.972Z,59.95
2022-08-19T07:22:30.240Z,60.10
2022-08-19T07:26:40.855Z,59.63
2022-08-19T07:30:45.562Z,59.35
2022-08-19T07:34:48.692Z,58.97
2022-08-19T07:38:55.292Z,58.54
2022-08-19T07:43:00.130Z,58.61
2022-08-19T07:47:04.199Z,57.76
2022-08-19T07:51:09.665Z,57.98
2022-08-19T07:55:42.651Z,57.44
2022-08-19T07:59:37.693Z,57.17
2022-08-19T08:03:58.420Z,56.68
2022-08-19T08:08:18.976Z,56.16
2022-08-19T08:12:35.146Z,56.24
2022-08-19T08:16:47.067Z,56.14
2022-08-19T08:20:50.575Z,55.59
2022-08-19T08:24:53.970Z,55.33
2022-08-19T08:28:57.287Z,54.89
2022-08-19T08:33:02.690Z,54.69
2022-08-19T08:37:06.077Z,53.61
2022-08-19T08:41:20.805Z,53.51
2022-08-19T08:45:25.425Z,53.01
2022-08-19T08:49:36.032Z,52.83
2022-08-19T08:53:41.985Z,52.87
2022-08-19T08:57:55.783Z,52.37
2022-08-19T09:01:59.343Z,51.79
2022-08-19T09:06:06.297Z,50.74
2022-08-19T09:10:25.815Z,50.57
2022-08-19T09:14:51.077Z,49.74
2022-08-19T09:18:56.520Z,49.30
2022-08-19T09:23:01.131Z,48.94
2022-08-19T09:27:16.006Z,48.55
2022-08-19T09:31:30.519Z,47.39
2022-08-19T09:35:49.942Z,47.89
2022-08-19T09:39:58.979Z,47.00
2022-08-19T09:44:02.242Z,47.19
2022-08-19T09:48:07.221Z,46.60
2022-08-19T09:52:13.606Z,46.53
2022-08-19T09:56:20.110Z,46.26
2022-08-19T10:00:23.908Z,46.04
2022-08-19T10:04:47.289Z,45.76
2022-08-19T10:08:51.193Z,44.67
2022-08-19T10:12:56.998Z,44.46
2022-08-19T10:17:01.351Z,44.61
2022-08-19T10:21:25.552Z,44.45
2022-08-19T10:25:28.972Z,44.51
2022-08-19T10:29:36.894Z,44.29
2022-08-19T10:33:53.835Z,44.06
2022-08-19T10:38:02.085Z,44.59
2022-08-19T10:42:07.940Z,44.12
2022-08-19T10:46:16.472Z,43.67
2022-08-19T10:50:37.802Z,43.90
2022-08-19T10:54:58.650Z,43.92
2022-08-19T10:59:08.941Z,44.83
2022-08-19T11:03:13.653Z,44.68
2022-08-19T11:07:17.150Z,43.83
2022-08-19T11:11:20.314Z,43.99
2022-08-19T11:15:24.275Z,44.78
2022-08-19T11:19:28.962Z,48.54
2022-08-19T11:23:32.105Z,50.83
2022-08-19T11:27:35.675Z,52.85
2022-08-19T11:31:40.389Z,54.43
2022-08-19T11:35:45.308Z,56.00
2022-08-19T11:39:53.342Z,55.40
2022-08-19T11:43:57.592Z,55.62
2022-08-19T11:48:00.863Z,55.69
2022-08-19T11:52:05.705Z,53.68
2022-08-19T11:56:10.251Z,53.26
2022-08-19T12:00:14.826Z,52.26
2022-08-19T12:04:18.602Z,51.63
2022-08-19T12:08:25.096Z,51.26
2022-08-19T12:12:28.563Z,50.65
2022-08-19T12:16:33.773Z,50.43
2022-08-19T12:20:38.221Z,50.08
2022-08-19T12:24:42.986Z,49.64
2022-08-19T12:28:47.092Z,49.62
2022-08-19T12:32:52.098Z,50.00
2022-08-19T12:36:55.543Z,49.12
2022-08-19T12:41:00.522Z,48.97
2022-08-19T12:45:03.763Z,48.34
2022-08-19T12:49:19.944Z,48.02
2022-08-19T12:53:32.893Z,47.83
2022-08-19T12:57:39.994Z,47.95
2022-08-19T13:01:43.406Z,48.32
2022-08-19T13:05:46.817Z,48.63
2022-08-19T13:09:49.932Z,48.82
2022-08-19T13:13:56.301Z,49.03
2022-08-19T13:17:59.815Z,49.05
2022-08-19T13:22:02.939Z,49.29
2022-08-19T13:26:09.035Z,49.71
2022-08-19T13:30:34.827Z,49.24
2022-08-19T13:34:38.031Z,48.55
2022-08-19T13:38:41.157Z,48.45
2022-08-19T13:42:45.045Z,48.39
2022-08-19T13:46:54.290Z,48.62
2022-08-19T13:50:57.655Z,49.12
2022-08-19T13:55:00.945Z,49.41
2022-08-19T13:59:04.203Z,49.02
2022-08-19T14:03:09.486Z,49.97
2022-08-19T14:07:12.858Z,50.40
2022-08-19T14:11:17.010Z,51.35
2022-08-19T14:15:20.155Z,51.97
2022-08-19T14:19:24.845Z,52.66
2022-08-19T14:23:33.193Z,53.06
2022-08-19T14:27:36.581Z,52.60
2022-08-19T14:31:42.334Z,52.20
2022-08-19T14:35:46.927Z,52.22
2022-08-19T14:39:50.053Z,51.88
2022-08-19T14:43:54.330Z,52.32
2022-08-19T14:47:57.616Z,51.95
2022-08-19T14:52:01.998Z,52.02
2022-08-19T14:56:09.966Z,52.01
2022-08-19T15:00:14.717Z,51.69
2022-08-19T15:04:17.928Z,51.14
2022-08-19T15:08:25.813Z,50.74
2022-08-19T15:12:28.838Z,50.53
2022-08-19T15:16:32.065Z,50.10
2022-08-19T15:20:35.174Z,49.80
2022-08-19T15:24:47.861Z,49.31
2022-08-19T15:28:51.719Z,49.52
2022-08-19T15:32:55.856Z,49.91
2022-08-19T15:37:00.123Z,49.07
2022-08-19T15:41:20.133Z,48.65
2022-08-19T15:45:23.780Z,48.76
2022-08-19T15:49:27.005Z,48.32
2022-08-19T15:53:30.216Z,47.54
2022-08-19T15:57:51.802Z,47.33
2022-08-19T16:02:12.385Z,46.94
2022-08-19T16:06:28.347Z,46.47
2022-08-19T16:10:31.656Z,46.56
2022-08-19T16:14:38.150Z,46.44
2022-08-19T16:18:41.474Z,46.33
2022-08-19T16:22:44.693Z,46.42
2022-08-19T16:26:48.624Z,46.79
2022-08-19T16:30:53.028Z,46.79
2022-08-19T16:34:56.083Z,47.22
2022-08-19T16:38:59.156Z,47.36
2022-08-19T16:43:02.921Z,47.09
2022-08-19T16:47:07.828Z,47.76
2022-08-19T16:51:11.722Z,47.80
2022-08-19T16:55:15.520Z,48.09
2022-08-19T16:59:18.916Z,48.63
2022-08-19T17:03:35.684Z,48.54
2022-08-19T17:07:40.226Z,48.88
2022-08-19T17:11:43.189Z,49.00
2022-08-19T17:15:46.394Z,49.30
2022-08-19T17:19:50.787Z,49.44
2022-08-19T17:23:54.398Z,49.19
2022-08-19T17:27:57.446Z,48.94
2022-08-19T17:32:00.797Z,49.30
2022-08-19T17:36:06.837Z,49.10
2022-08-19T17:40:11.169Z,49.19
2022-08-19T17:44:14.600Z,49.43
2022-08-19T17:48:17.992Z,49.47
2022-08-19T17:52:22.565Z,49.96
2022-08-19T17:56:25.997Z,50.37
2022-08-19T18:00:29.035Z,51.20
2022-08-19T18:04:34.659Z,51.80
2022-08-19T18:08:39.981Z,51.88
2022-08-19T18:12:44.694Z,52.07
2022-08-19T18:16:48.025Z,52.15
2022-08-19T18:20:51.617Z,52.22
2022-08-19T18:24:57.882Z,52.01
2022-08-19T18:29:01.974Z,52.60
2022-08-19T18:33:15.073Z,52.51
2022-08-19T18:37:18.503Z,52.97
2022-08-19T18:41:40.634Z,52.82
2022-08-19T18:46:02.829Z,53.38
2022-08-19T18:50:09.120Z,53.00
2022-08-19T18:54:15.172Z,53.49
2022-08-19T18:58:24.379Z,53.85
2022-08-19T19:02:29.608Z,53.83
2022-08-19T19:06:40.191Z,53.71
2022-08-19T19:10:44.537Z,54.13
2022-08-19T19:14:50.668Z,54.50
2022-08-19T19:19:04.887Z,54.72
2022-08-19T19:24:24.591Z,55.21
2022-08-19T19:28:30.832Z,55.62
2022-08-19T19:32:39.269Z,55.45
2022-08-19T19:36:42.654Z,55.77
2022-08-19T19:40:45.997Z,55.75
2022-08-19T19:44:50.555Z,56.59
2022-08-19T19:48:59.842Z,56.92
2022-08-19T19:53:03.260Z,56.69
2022-08-19T19:57:06.718Z,55.81
2022-08-19T20:01:12.838Z,55.97
2022-08-19T20:05:34.088Z,56.24
2022-08-19T20:09:58.368Z,56.64
2022-08-19T20:14:03.514Z,58.16
2022-08-19T20:18:07.704Z,58.63
2022-08-19T20:22:14.171Z,58.71
2022-08-19T20:26:27.173Z,58.56
2022-08-19T20:30:36.123Z,59.45
2022-08-19T20:34:44.769Z,60.45
2022-08-19T20:38:49.907Z,61.17
2022-08-19T20:42:56.295Z,62.21
2022-08-19T20:47:03.379Z,63.31
2022-08-19T20:51:07.712Z,64.19
2022-08-19T20:55:13.959Z,64.55
2022-08-19T20:59:17.768Z,64.90
2022-08-19T21:03:24.169Z,65.69
2022-08-19T21:07:39.297Z,65.56
2022-08-19T21:11:44.241Z,66.60
2022-08-19T21:15:47.940Z,66.93
2022-08-19T21:19:51.095Z,67.19
2022-08-19T21:23:54.468Z,67.65
2022-08-19T21:27:59.203Z,67.65
2022-08-19T21:32:02.400Z,68.32
2022-08-19T21:36:06.460Z,68.03
2022-08-19T21:40:11.091Z,68.33
2022-08-19T21:44:15.725Z,68.84
2022-08-19T21:48:19.459Z,68.80
2022-08-19T21:52:23.406Z,68.63
2022-08-19T21:56:26.546Z,68.43
2022-08-19T22:00:32.332Z,68.40
2022-08-19T22:04:35.654Z,67.81
2022-08-19T22:08:38.875Z,67.20
2022-08-19T22:12:47.385Z,67.52
2022-08-19T22:16:56.420Z,65.47
2022-08-19T22:20:59.552Z,64.79
2022-08-19T22:25:07.771Z,64.50
2022-08-19T22:29:11.526Z,63.74
2022-08-19T22:33:22.378Z,63.04
2022-08-19T22:37:26.011Z,63.18
2022-08-19T22:41:29.142Z,63.76
2022-08-19T22:45:36.351Z,64.11
2022-08-19T22:49:40.769Z,63.72
2022-08-19T22:53:46.060Z,63.82
2022-08-19T22:57:49.323Z,64.48
2022-08-19T23:01:52.473Z,64.52
2022-08-19T23:05:57.243Z,64.53
2022-08-19T23:10:00.540Z,64.40
2022-08-19T23:14:05.029Z,64.79
2022-08-19T23:18:08.814Z,64.55
2022-08-19T23:22:17.124Z,64.44
2022-08-19T23:26:20.559Z,64.61
2022-08-19T23:30:28.381Z,65.13
2022-08-19T23:34:31.604Z,65.26
2022-08-19T23:38:36.796Z,65.48
2022-08-19T23:42:41.963Z,65.68
2022-08-19T23:46:55.267Z,65.62
2022-08-19T23:50:59.014Z,65.32
2022-08-19T23:55:06.257Z,65.85
2022-08-19T23:59:09.444Z,65.70
